Time;durP1;ratioP1;P1;durP2;ratioP2;P2;SDS_P1;SDS_P2;PMS_P1;PMS_P2;Temp;Humidity;BMP_temperature;BMP_pressure;BME280_temperature;BME280_humidity;BME280_pressure;Samples;Min_cycle;Max_cycle;Signal;HPM_P1;HPM_P2
2020/12/13 00:00:13;;;;;;;78.05;44.08;;;;;;;;;;5054957;28;20035;-49
2020/12/13 00:02:39;;;;;;;75.97;40.38;;;;;;;;;;5054618;28;20025;-49
2020/12/13 00:05:06;;;;;;;69.13;38.42;;;;;;;;;;5054797;28;20020;-49
2020/12/13 00:07:32;;;;;;;79.30;37.63;;;;;;;;;;5053689;28;20044;-49
2020/12/13 00:09:59;;;;;;;80.43;40.60;;;;;;;;;;5054723;28;20766;-49
2020/12/13 00:12:25;;;;;;;84.95;43.70;;;;;;;;;;5054809;28;20075;-49
2020/12/13 00:14:51;;;;;;;101.47;46.65;;;;;;;;;;5054554;28;20031;-49
2020/12/13 00:17:18;;;;;;;80.00;40.00;;;;;;;;;;5054536;28;20037;-49
2020/12/13 00:19:44;;;;;;;92.65;45.97;;;;;;;;;;5054430;28;20029;-49
2020/12/13 00:22:10;;;;;;;73.53;39.38;;;;;;;;;;5054384;28;20025;-49
2020/12/13 00:24:37;;;;;;;75.82;40.63;;;;;;;;;;5054295;28;20027;-49
2020/12/13 00:27:03;;;;;;;59.03;36.42;;;;;;;;;;5054218;28;20021;-49
2020/12/13 00:29:29;;;;;;;84.82;42.95;;;;;;;;;;5053950;28;20360;-48
2020/12/13 00:31:56;;;;;;;70.25;39.97;;;;;;;;;;5054118;28;20020;-49
2020/12/13 00:34:22;;;;;;;88.93;46.28;;;;;;;;;;5054035;28;20182;-49
2020/12/13 00:36:52;;;;;;;81.65;42.35;;;;;;;;;;5054157;28;20025;-49
2020/12/13 00:39:19;;;;;;;78.72;42.03;;;;;;;;;;5054027;28;20386;-48
2020/12/13 00:41:55;;;;;;;89.85;44.08;;;;;;;;;;5053916;28;20059;-49
2020/12/13 00:44:21;;;;;;;89.03;40.25;;;;;;;;;;5054002;28;20017;-48
2020/12/13 00:46:47;;;;;;;89.35;38.17;;;;;;;;;;5053899;28;20025;-49
2020/12/13 00:49:14;;;;;;;57.28;36.80;;;;;;;;;;5053892;28;20025;-49
2020/12/13 00:51:41;;;;;;;101.40;45.88;;;;;;;;;;5053404;28;20028;-49
2020/12/13 00:54:07;;;;;;;83.72;40.88;;;;;;;;;;5052877;28;20373;-49
2020/12/13 00:56:34;;;;;;;57.78;36.20;;;;;;;;;;5053362;28;20025;-49
2020/12/13 00:59:00;;;;;;;93.03;42.67;;;;;;;;;;5053889;28;20380;-48
2020/12/13 01:01:26;;;;;;;76.80;36.53;;;;;;;;;;5053755;28;20032;-48
2020/12/13 01:03:52;;;;;;;120.78;44.95;;;;;;;;;;5053999;28;20036;-48
2020/12/13 01:06:25;;;;;;;85.15;41.78;;;;;;;;;;5053699;28;20036;-49
2020/12/13 01:08:52;;;;;;;94.40;43.65;;;;;;;;;;5053479;28;20545;-48
2020/12/13 01:11:36;;;;;;;83.90;39.03;;;;;;;;;;5053458;28;20029;-48
2020/12/13 01:14:04;;;;;;;86.18;46.05;;;;;;;;;;5053697;28;20040;-48
2020/12/13 01:16:30;;;;;;;98.82;42.30;;;;;;;;;;5053409;28;20044;-48
2020/12/13 01:18:59;;;;;;;93.82;42.60;;;;;;;;;;5053580;28;20074;-48
2020/12/13 01:21:26;;;;;;;91.03;43.17;;;;;;;;;;5053199;28;20040;-48
2020/12/13 01:23:52;;;;;;;82.88;42.33;;;;;;;;;;5053203;28;20029;-48
2020/12/13 01:26:19;;;;;;;86.40;42.25;;;;;;;;;;5053255;28;20045;-48
2020/12/13 01:28:46;;;;;;;76.85;46.42;;;;;;;;;;5053268;28;20028;-48
2020/12/13 01:31:14;;;;;;;83.78;39.58;;;;;;;;;;5053162;28;20501;-49
2020/12/13 01:33:40;;;;;;;81.57;42.88;;;;;;;;;;5053088;28;20025;-49
2020/12/13 01:36:10;;;;;;;75.55;39.85;;;;;;;;;;5052994;28;20029;-49
2020/12/13 01:38:36;;;;;;;83.10;42.30;;;;;;;;;;5053115;28;20025;-49
2020/12/13 01:41:03;;;;;;;109.05;44.03;;;;;;;;;;5053041;28;20029;-49
2020/12/13 01:43:29;;;;;;;84.30;41.42;;;;;;;;;;5052934;28;20106;-48
2020/12/13 01:45:55;;;;;;;74.32;36.65;;;;;;;;;;5052883;28;20021;-48
2020/12/13 01:48:22;;;;;;;75.65;39.20;;;;;;;;;;5052898;28;20475;-49
2020/12/13 01:51:07;;;;;;;81.07;42.28;;;;;;;;;;5052426;28;20027;-49
2020/12/13 01:53:34;;;;;;;86.20;40.90;;;;;;;;;;5052833;28;20029;-49
2020/12/13 01:56:02;;;;;;;83.78;43.08;;;;;;;;;;5052754;28;20475;-48
2020/12/13 01:58:31;;;;;;;80.47;39.53;;;;;;;;;;5052684;28;20059;-48
2020/12/13 02:00:59;;;;;;;74.10;34.85;;;;;;;;;;5052382;28;20067;-48
2020/12/13 02:03:46;;;;;;;60.13;35.63;;;;;;;;;;5052291;28;20052;-48
2020/12/13 02:06:22;;;;;;;79.90;39.33;;;;;;;;;;5052167;28;20056;-49
2020/12/13 02:08:49;;;;;;;65.70;41.15;;;;;;;;;;5052105;28;20053;-49
2020/12/13 02:11:17;;;;;;;70.88;40.38;;;;;;;;;;5052284;28;20067;-49
2020/12/13 02:13:43;;;;;;;93.70;39.78;;;;;;;;;;5052105;28;20112;-49
2020/12/13 02:16:10;;;;;;;79.53;41.95;;;;;;;;;;5052323;28;20083;-49
2020/12/13 02:18:36;;;;;;;65.63;38.55;;;;;;;;;;5052257;28;20025;-49
2020/12/13 02:21:03;;;;;;;88.05;42.00;;;;;;;;;;5052184;28;20032;-49
2020/12/13 02:23:30;;;;;;;76.97;37.90;;;;;;;;;;5052065;28;20467;-49
2020/12/13 02:25:56;;;;;;;56.50;31.77;;;;;;;;;;5052157;28;20475;-49
2020/12/13 02:28:22;;;;;;;83.88;36.40;;;;;;;;;;5052033;28;20432;-49
2020/12/13 02:30:50;;;;;;;80.90;44.78;;;;;;;;;;5052055;28;20499;-49
2020/12/13 02:33:16;;;;;;;62.13;38.40;;;;;;;;;;5052017;28;20033;-49
2020/12/13 02:35:43;;;;;;;72.70;37.85;;;;;;;;;;5051890;28;20032;-49
2020/12/13 02:38:09;;;;;;;76.65;35.92;;;;;;;;;;5051975;28;20047;-50
2020/12/13 02:40:35;;;;;;;69.63;36.22;;;;;;;;;;5051817;28;20147;-49
2020/12/13 02:43:02;;;;;;;84.80;38.22;;;;;;;;;;5051705;28;20025;-49
2020/12/13 02:45:28;;;;;;;79.28;43.20;;;;;;;;;;5051794;28;20114;-48
2020/12/13 02:47:54;;;;;;;60.78;37.08;;;;;;;;;;5051811;28;20031;-48
2020/12/13 02:50:20;;;;;;;59.55;39.60;;;;;;;;;;5051604;28;20067;-48
2020/12/13 02:52:47;;;;;;;74.70;35.50;;;;;;;;;;5051612;28;20087;-48
2020/12/13 02:55:13;;;;;;;89.28;37.33;;;;;;;;;;5051783;28;20195;-48
2020/12/13 02:57:40;;;;;;;76.00;37.80;;;;;;;;;;5051762;28;20029;-48
2020/12/13 03:00:07;;;;;;;68.25;38.13;;;;;;;;;;5051702;28;20482;-48
2020/12/13 03:02:33;;;;;;;77.95;42.00;;;;;;;;;;5051527;28;20040;-48
2020/12/13 03:05:00;;;;;;;84.05;34.55;;;;;;;;;;5051523;28;20348;-48
2020/12/13 03:07:26;;;;;;;74.57;35.13;;;;;;;;;;5051564;28;20033;-48
2020/12/13 03:09:52;;;;;;;77.53;37.28;;;;;;;;;;5051838;28;20095;-48
2020/12/13 03:12:19;;;;;;;87.47;40.10;;;;;;;;;;5051692;28;20025;-48
2020/12/13 03:14:45;;;;;;;71.53;36.25;;;;;;;;;;5051476;28;20623;-48
2020/12/13 03:17:11;;;;;;;112.63;44.70;;;;;;;;;;5051416;28;20425;-48
2020/12/13 03:19:37;;;;;;;114.88;55.50;;;;;;;;;;5055038;28;20367;-49
2020/12/13 03:22:04;;;;;;;108.88;47.47;;;;;;;;;;5055328;28;20036;-49
2020/12/13 03:24:30;;;;;;;85.50;41.50;;;;;;;;;;5055242;28;20100;-49
2020/12/13 03:26:56;;;;;;;92.10;49.22;;;;;;;;;;5055396;28;20523;-49
2020/12/13 03:29:22;;;;;;;106.68;42.13;;;;;;;;;;5055326;28;20508;-49
2020/12/13 03:31:49;;;;;;;107.13;46.15;;;;;;;;;;5055182;28;20479;-49
2020/12/13 03:34:15;;;;;;;106.13;47.75;;;;;;;;;;5055184;28;20037;-48
2020/12/13 03:36:41;;;;;;;106.00;50.78;;;;;;;;;;5055267;28;20467;-49
2020/12/13 03:39:08;;;;;;;107.68;47.33;;;;;;;;;;5055107;28;20486;-49
2020/12/13 03:41:34;;;;;;;105.65;46.65;;;;;;;;;;5055100;28;20075;-49
2020/12/13 03:44:00;;;;;;;100.68;44.40;;;;;;;;;;5054914;28;20017;-49
2020/12/13 03:46:26;;;;;;;108.93;46.53;;;;;;;;;;5055051;28;20021;-49
2020/12/13 03:48:52;;;;;;;92.30;50.83;;;;;;;;;;5055143;28;20032;-49
2020/12/13 03:51:19;;;;;;;97.43;46.05;;;;;;;;;;5055113;28;20140;-49
2020/12/13 03:53:45;;;;;;;104.13;46.40;;;;;;;;;;5054876;28;20486;-49
2020/12/13 03:56:11;;;;;;;98.82;47.83;;;;;;;;;;5055066;28;20025;-49
2020/12/13 03:58:38;;;;;;;87.55;40.70;;;;;;;;;;5053812;28;20036;-49
2020/12/13 04:01:04;;;;;;;83.72;45.67;;;;;;;;;;5054932;28;20047;-49
2020/12/13 04:03:30;;;;;;;107.93;49.03;;;;;;;;;;5054606;28;20021;-48
2020/12/13 04:05:56;;;;;;;101.68;47.67;;;;;;;;;;5054738;28;20025;-49
2020/12/13 04:08:23;;;;;;;82.93;44.88;;;;;;;;;;5054663;28;20052;-48
2020/12/13 04:10:49;;;;;;;107.68;45.63;;;;;;;;;;5054621;28;20104;-48
2020/12/13 04:13:15;;;;;;;90.28;46.05;;;;;;;;;;5054607;28;20031;-48
2020/12/13 04:15:42;;;;;;;92.95;45.13;;;;;;;;;;5054617;28;20029;-48
2020/12/13 04:18:08;;;;;;;94.03;46.08;;;;;;;;;;5054729;28;20032;-48
2020/12/13 04:20:34;;;;;;;105.50;47.40;;;;;;;;;;5054679;28;20082;-48
2020/12/13 04:23:00;;;;;;;111.80;48.80;;;;;;;;;;5051836;28;20033;-48
2020/12/13 04:25:27;;;;;;;80.70;42.47;;;;;;;;;;5051751;28;20017;-49
2020/12/13 04:27:53;;;;;;;92.70;42.15;;;;;;;;;;5051777;28;20467;-49
2020/12/13 04:30:19;;;;;;;101.55;47.35;;;;;;;;;;5051487;28;20013;-49
2020/12/13 04:32:46;;;;;;;75.90;39.35;;;;;;;;;;5051109;28;20048;-49
2020/12/13 04:35:12;;;;;;;68.30;43.60;;;;;;;;;;5051577;28;20051;-49
2020/12/13 04:37:39;;;;;;;97.97;45.70;;;;;;;;;;5051677;28;20379;-49
2020/12/13 04:40:06;;;;;;;90.78;44.30;;;;;;;;;;5051475;28;20097;-49
2020/12/13 04:42:35;;;;;;;109.40;44.83;;;;;;;;;;5051570;28;20025;-49
2020/12/13 04:45:01;;;;;;;89.03;45.25;;;;;;;;;;5052600;28;20013;-49
2020/12/13 04:47:29;;;;;;;73.72;40.53;;;;;;;;;;5052517;28;20013;-49
2020/12/13 04:49:55;;;;;;;79.82;45.40;;;;;;;;;;5052568;28;20051;-48
2020/12/13 04:52:22;;;;;;;100.70;51.40;;;;;;;;;;5052515;28;20048;-48
2020/12/13 04:54:49;;;;;;;80.35;42.42;;;;;;;;;;5051644;28;20457;-48
2020/12/13 04:57:16;;;;;;;107.70;44.17;;;;;;;;;;5050093;28;20083;-48
2020/12/13 04:59:42;;;;;;;93.00;42.90;;;;;;;;;;5052129;28;20025;-48
2020/12/13 05:02:11;;;;;;;72.57;40.47;;;;;;;;;;5052058;28;20103;-48
2020/12/13 05:04:38;;;;;;;79.95;40.45;;;;;;;;;;5052174;28;20009;-48
2020/12/13 05:07:04;;;;;;;88.25;41.20;;;;;;;;;;5052219;28;20029;-48
2020/12/13 05:09:30;;;;;;;85.22;42.30;;;;;;;;;;5051983;28;20518;-48
2020/12/13 05:11:57;;;;;;;86.72;40.58;;;;;;;;;;5051927;28;20025;-48
2020/12/13 05:14:23;;;;;;;83.68;43.15;;;;;;;;;;5051994;28;20025;-48
2020/12/13 05:16:49;;;;;;;81.60;39.28;;;;;;;;;;5052540;28;20427;-48
2020/12/13 05:19:16;;;;;;;84.50;42.53;;;;;;;;;;5052107;28;20382;-48
2020/12/13 05:21:43;;;;;;;90.80;39.72;;;;;;;;;;5049128;28;20096;-48
2020/12/13 05:24:10;;;;;;;93.00;41.40;;;;;;;;;;5051862;28;20044;-48
2020/12/13 05:26:36;;;;;;;73.05;38.88;;;;;;;;;;5051746;28;20021;-48
2020/12/13 05:29:05;;;;;;;87.93;41.45;;;;;;;;;;5049176;28;20028;-48
2020/12/13 05:31:33;;;;;;;95.80;42.13;;;;;;;;;;5051749;28;20028;-48
2020/12/13 05:34:05;;;;;;;75.05;37.78;;;;;;;;;;5051413;28;20021;-48
2020/12/13 05:36:35;;;;;;;70.53;34.55;;;;;;;;;;5051835;28;20021;-48
2020/12/13 05:39:02;;;;;;;60.58;35.15;;;;;;;;;;5051541;28;20058;-48
2020/12/13 05:41:39;;;;;;;98.93;41.78;;;;;;;;;;5050331;28;20049;-48
2020/12/13 05:50:13;;;;;;;76.32;39.67;;;;;;;;;;5033930;28;20025;-48
2020/12/13 05:52:43;;;;;;;78.68;39.25;;;;;;;;;;5050931;28;20068;-48
2020/12/13 05:55:09;;;;;;;;;;;;;;;;;;5050660;28;20380;-48
2020/12/13 05:57:37;;;;;;;90.68;37.83;;;;;;;;;;5051159;28;20374;-48
2020/12/13 06:00:05;;;;;;;75.38;39.42;;;;;;;;;;5051345;28;20114;-48
2020/12/13 06:02:32;;;;;;;96.43;39.30;;;;;;;;;;5051236;28;20021;-48
2020/12/13 06:05:02;;;;;;;64.75;35.60;;;;;;;;;;5051174;28;20063;-48
2020/12/13 06:07:31;;;;;;;76.07;41.35;;;;;;;;;;5193306;22;20112;-49
2020/12/13 06:10:02;;;;;;;96.30;44.28;;;;;;;;;;5009432;28;20049;-49
2020/12/13 06:12:29;;;;;;;87.30;43.47;;;;;;;;;;5012785;28;20026;-48
2020/12/13 06:14:58;;;;;;;90.15;44.47;;;;;;;;;;5012605;28;20493;-48
2020/12/13 06:17:26;;;;;;;94.65;50.03;;;;;;;;;;5012652;28;20084;-48
2020/12/13 06:19:53;;;;;;;114.65;51.38;;;;;;;;;;5012395;28;20026;-48
2020/12/13 06:22:21;;;;;;;80.53;42.10;;;;;;;;;;5012421;28;20030;-48
2020/12/13 06:24:49;;;;;;;91.93;44.50;;;;;;;;;;5012506;28;20022;-48
2020/12/13 06:27:15;;;;;;;82.45;42.65;;;;;;;;;;5012636;28;20018;-48
2020/12/13 06:29:42;;;;;;;80.07;39.47;;;;;;;;;;5012425;28;20022;-48
2020/12/13 06:32:09;;;;;;;97.03;43.25;;;;;;;;;;5012560;28;20530;-48
2020/12/13 06:34:36;;;;;;;122.25;49.10;;;;;;;;;;5012475;28;20030;-48
2020/12/13 06:37:04;;;;;;;92.00;44.72;;;;;;;;;;5012091;28;20065;-48
2020/12/13 06:39:31;;;;;;;105.18;44.42;;;;;;;;;;5012577;28;20038;-48
2020/12/13 06:42:03;;;;;;;105.80;47.08;;;;;;;;;;5012466;28;20053;-48
2020/12/13 06:44:29;;;;;;;126.65;47.58;;;;;;;;;;5012136;28;20136;-48
2020/12/13 06:46:55;;;;;;;107.82;45.63;;;;;;;;;;5012057;28;20022;-48
2020/12/13 06:49:22;;;;;;;119.60;50.22;;;;;;;;;;5011620;28;20018;-48
2020/12/13 06:51:48;;;;;;;97.45;46.72;;;;;;;;;;5011925;28;20057;-48
2020/12/13 06:54:16;;;;;;;104.68;47.30;;;;;;;;;;5011433;28;20022;-48
2020/12/13 06:56:43;;;;;;;87.43;41.83;;;;;;;;;;5011898;28;20028;-48
2020/12/13 06:59:10;;;;;;;98.40;45.50;;;;;;;;;;5011942;28;20033;-48
2020/12/13 07:01:39;;;;;;;84.57;40.50;;;;;;;;;;5011915;28;20029;-47
2020/12/13 07:04:23;;;;;;;82.10;42.78;;;;;;;;;;5011906;28;20041;-48
2020/12/13 07:07:03;;;;;;;74.55;41.35;;;;;;;;;;5011503;28;20026;-48
2020/12/13 07:09:30;;;;;;;87.13;44.60;;;;;;;;;;5009388;28;20030;-48
2020/12/13 07:11:57;;;;;;;72.00;37.70;;;;;;;;;;5010513;28;20361;-48
2020/12/13 07:14:26;;;;;;;83.25;43.70;;;;;;;;;;5010604;28;20022;-48
2020/12/13 07:17:05;;;;;;;81.18;43.20;;;;;;;;;;5010685;28;20030;-48
2020/12/13 07:19:32;;;;;;;93.28;40.30;;;;;;;;;;5008242;28;20033;-48
2020/12/13 07:22:03;;;;;;;90.82;44.08;;;;;;;;;;5010303;28;20405;-48
2020/12/13 07:24:29;;;;;;;73.93;38.13;;;;;;;;;;5008072;28;20045;-48
2020/12/13 07:26:56;;;;;;;72.63;39.15;;;;;;;;;;5010478;28;20148;-48
2020/12/13 07:29:22;;;;;;;64.63;35.85;;;;;;;;;;5010552;28;20077;-48
2020/12/13 07:31:48;;;;;;;79.60;40.08;;;;;;;;;;5008041;28;20498;-48
2020/12/13 07:34:15;;;;;;;82.93;38.45;;;;;;;;;;5010427;28;20025;-48
2020/12/13 07:36:41;;;;;;;77.63;39.70;;;;;;;;;;5010371;28;20030;-48
2020/12/13 07:39:11;;;;;;;108.15;40.50;;;;;;;;;;5007734;28;20096;-48
2020/12/13 07:41:37;;;;;;;108.05;44.17;;;;;;;;;;5010418;28;20025;-48
2020/12/13 07:44:08;;;;;;;76.88;40.15;;;;;;;;;;5010187;28;20033;-48
2020/12/13 07:46:35;;;;;;;75.38;40.53;;;;;;;;;;5010366;28;20022;-48
2020/12/13 07:49:02;;;;;;;102.85;42.03;;;;;;;;;;5010294;28;20018;-48
2020/12/13 07:51:28;;;;;;;84.78;40.72;;;;;;;;;;5007707;28;20099;-48
2020/12/13 07:53:55;;;;;;;90.38;37.38;;;;;;;;;;5011480;28;20026;-48
2020/12/13 07:56:27;;;;;;;82.30;42.10;;;;;;;;;;5011446;28;20033;-48
2020/12/13 07:59:10;;;;;;;76.68;39.35;;;;;;;;;;5011391;28;20049;-48
2020/12/13 08:01:36;;;;;;;76.75;39.83;;;;;;;;;;5011452;28;20029;-48
2020/12/13 08:04:03;;;;;;;78.97;37.22;;;;;;;;;;5012257;28;20025;-48
2020/12/13 08:06:29;;;;;;;65.80;37.22;;;;;;;;;;5015228;28;20541;-48
2020/12/13 08:08:56;;;;;;;77.35;43.15;;;;;;;;;;5014826;28;20052;-49
2020/12/13 08:11:22;;;;;;;91.07;39.00;;;;;;;;;;5015153;28;20077;-48
2020/12/13 08:13:54;;;;;;;90.68;41.25;;;;;;;;;;5015072;28;20029;-48
2020/12/13 08:16:23;;;;;;;88.07;39.92;;;;;;;;;;5014859;28;20157;-48
2020/12/13 08:18:50;;;;;;;86.25;40.05;;;;;;;;;;5014915;28;20048;-48
2020/12/13 08:21:25;;;;;;;77.35;39.53;;;;;;;;;;5014699;28;20026;-48
2020/12/13 08:23:53;;;;;;;91.25;37.63;;;;;;;;;;5014747;28;20050;-48
2020/12/13 08:26:19;;;;;;;90.85;36.95;;;;;;;;;;5014707;28;20029;-48
2020/12/13 08:28:47;;;;;;;93.05;42.60;;;;;;;;;;5014770;28;20538;-48
2020/12/13 08:31:15;;;;;;;85.25;40.17;;;;;;;;;;5014676;28;20499;-48
2020/12/13 08:33:42;;;;;;;89.75;39.33;;;;;;;;;;5014555;28;20026;-48
2020/12/13 08:36:18;;;;;;;71.38;37.75;;;;;;;;;;5014383;28;20057;-48
2020/12/13 08:38:44;;;;;;;68.57;34.85;;;;;;;;;;5014393;28;20026;-48
2020/12/13 08:41:12;;;;;;;89.15;35.92;;;;;;;;;;5014366;28;20049;-48
2020/12/13 08:43:39;;;;;;;74.55;36.67;;;;;;;;;;5013862;28;20040;-48
2020/12/13 08:46:06;;;;;;;69.95;39.45;;;;;;;;;;5014158;28;20037;-48
2020/12/13 08:48:32;;;;;;;80.53;41.25;;;;;;;;;;5013313;28;20054;-48
2020/12/13 08:51:08;;;;;;;86.70;39.80;;;;;;;;;;5014328;28;20022;-48
2020/12/13 08:53:35;;;;;;;63.67;34.00;;;;;;;;;;5014455;28;20026;-48
2020/12/13 08:56:13;;;;;;;98.28;37.75;;;;;;;;;;5014368;28;20898;-48
2020/12/13 08:58:47;;;;;;;71.75;34.35;;;;;;;;;;4996603;28;20428;-48
2020/12/13 09:01:13;;;;;;;72.07;36.30;;;;;;;;;;5013998;28;20432;-48
2020/12/13 09:03:39;;;;;;;62.15;33.60;;;;;;;;;;5013856;28;20096;-48
2020/12/13 09:06:06;;;;;;;83.22;40.35;;;;;;;;;;5013836;28;20026;-48
2020/12/13 09:08:32;;;;;;;94.47;41.85;;;;;;;;;;5013755;28;20117;-48
2020/12/13 09:11:04;;;;;;;84.45;39.97;;;;;;;;;;5013909;28;20015;-48
2020/12/13 09:13:31;;;;;;;70.72;37.13;;;;;;;;;;5013978;28;20088;-48
2020/12/13 09:15:58;;;;;;;77.78;37.45;;;;;;;;;;5013103;28;20029;-48
2020/12/13 09:18:24;;;;;;;67.63;38.35;;;;;;;;;;5013817;28;20052;-48
2020/12/13 09:20:59;;;;;;;66.10;36.42;;;;;;;;;;5013681;28;20022;-48
2020/12/13 09:23:26;;;;;;;76.82;37.10;;;;;;;;;;5013383;28;20026;-48
2020/12/13 09:25:53;;;;;;;80.50;37.08;;;;;;;;;;5013478;28;20026;-48
2020/12/13 09:28:20;;;;;;;66.20;37.55;;;;;;;;;;5013455;28;20101;-48
2020/12/13 09:30:46;;;;;;;87.45;41.55;;;;;;;;;;5013497;28;20105;-48
2020/12/13 09:33:15;;;;;;;81.10;39.55;;;;;;;;;;5013357;28;20033;-48
2020/12/13 09:35:41;;;;;;;85.72;45.63;;;;;;;;;;5013407;28;20100;-48
2020/12/13 09:38:08;;;;;;;97.43;49.58;;;;;;;;;;5013480;28;20032;-48
2020/12/13 09:40:35;;;;;;;116.90;63.75;;;;;;;;;;5013405;28;20021;-48
2020/12/13 09:43:01;;;;;;;121.40;51.72;;;;;;;;;;5013037;28;20022;-48
2020/12/13 09:45:28;;;;;;;85.90;45.83;;;;;;;;;;5013369;28;20101;-48
2020/12/13 09:47:56;;;;;;;156.85;65.65;;;;;;;;;;5013220;28;20504;-48
2020/12/13 09:50:23;;;;;;;107.90;53.60;;;;;;;;;;5012980;28;20044;-48
2020/12/13 09:52:49;;;;;;;117.03;55.30;;;;;;;;;;5013071;28;20087;-48
2020/12/13 09:55:16;;;;;;;147.23;59.47;;;;;;;;;;5013126;28;20510;-48
2020/12/13 09:57:42;;;;;;;127.43;56.45;;;;;;;;;;5012838;28;20030;-48
2020/12/13 10:00:08;;;;;;;97.10;54.15;;;;;;;;;;5013049;28;20417;-48
2020/12/13 10:02:34;;;;;;;112.03;58.10;;;;;;;;;;5012731;28;20025;-49
2020/12/13 10:05:03;;;;;;;176.20;67.28;;;;;;;;;;5012705;28;20060;-49
2020/12/13 10:08:55;;;;;;;129.63;58.38;;;;;;;;;;5012660;28;20054;-49
2020/12/13 10:10:19;;;;;;;127.70;60.22;;;;;;;;;;5012703;28;20045;-49
2020/12/13 10:12:45;;;;;;;115.03;53.40;;;;;;;;;;5011579;28;20057;-48
2020/12/13 10:15:11;;;;;;;108.75;55.28;;;;;;;;;;5006473;28;20030;-50
2020/12/13 10:17:41;;;;;;;127.80;57.83;;;;;;;;;;5013402;28;20028;-49
2020/12/13 10:20:07;;;;;;;132.55;58.33;;;;;;;;;;5012351;28;20077;-48
2020/12/13 10:22:33;;;;;;;133.73;57.22;;;;;;;;;;5012352;28;20025;-50
2020/12/13 10:24:59;;;;;;;127.63;55.38;;;;;;;;;;5012380;28;20488;-49
2020/12/13 10:27:26;;;;;;;124.15;58.28;;;;;;;;;;5012222;28;20045;-47
2020/12/13 10:29:52;;;;;;;133.43;57.53;;;;;;;;;;5012388;28;20022;-47
2020/12/13 10:32:18;;;;;;;101.18;50.97;;;;;;;;;;5010423;28;20116;-47
2020/12/13 10:34:44;;;;;;;119.68;59.33;;;;;;;;;;5007415;28;20032;-46
2020/12/13 10:37:11;;;;;;;147.32;68.82;;;;;;;;;;5010717;28;20045;-52
2020/12/13 10:39:38;;;;;;;136.70;63.17;;;;;;;;;;5011398;28;20026;-49
2020/12/13 10:42:05;;;;;;;167.68;63.13;;;;;;;;;;5011352;28;20033;-49
2020/12/13 10:44:31;;;;;;;187.38;80.85;;;;;;;;;;5011291;28;20022;-51
2020/12/13 10:46:58;;;;;;;120.75;61.35;;;;;;;;;;5011337;28;20076;-45
2020/12/13 10:49:24;;;;;;;138.38;66.72;;;;;;;;;;5011325;28;20094;-48
2020/12/13 10:51:50;;;;;;;166.88;73.90;;;;;;;;;;5011892;28;20026;-43
2020/12/13 10:54:16;;;;;;;152.65;75.03;;;;;;;;;;5011958;28;20041;-44
2020/12/13 10:56:44;;;;;;;174.95;77.45;;;;;;;;;;5012068;28;20031;-45
2020/12/13 10:59:10;;;;;;;138.05;74.38;;;;;;;;;;5011954;28;20096;-44
2020/12/13 11:01:36;;;;;;;137.57;74.32;;;;;;;;;;5012029;28;20057;-44
2020/12/13 11:04:03;;;;;;;169.10;70.43;;;;;;;;;;5011887;28;20025;-45
2020/12/13 11:06:30;;;;;;;158.95;75.95;;;;;;;;;;5011867;28;20113;-45
2020/12/13 11:08:56;;;;;;;154.25;72.50;;;;;;;;;;5011614;28;20048;-52
2020/12/13 11:11:23;;;;;;;146.23;68.60;;;;;;;;;;5011828;28;20022;-48
2020/12/13 11:13:49;;;;;;;146.43;67.60;;;;;;;;;;4994370;28;20499;-48
2020/12/13 11:16:15;;;;;;;141.68;64.68;;;;;;;;;;5011932;28;20041;-47
2020/12/13 11:18:42;;;;;;;166.75;71.22;;;;;;;;;;5012150;28;20184;-47
2020/12/13 11:21:08;;;;;;;153.55;67.88;;;;;;;;;;5012081;28;20037;-46
2020/12/13 11:23:35;;;;;;;146.18;68.78;;;;;;;;;;5011908;28;20033;-48
2020/12/13 11:26:01;;;;;;;137.50;62.10;;;;;;;;;;5011858;28;20049;-50
2020/12/13 11:28:27;;;;;;;125.40;60.20;;;;;;;;;;5011824;28;20018;-47
2020/12/13 11:30:53;;;;;;;117.22;63.67;;;;;;;;;;5011618;28;20022;-52
2020/12/13 11:33:20;;;;;;;118.25;62.40;;;;;;;;;;5011755;28;20034;-52
2020/12/13 11:35:46;;;;;;;123.18;62.42;;;;;;;;;;5011777;28;20507;-46
2020/12/13 11:38:12;;;;;;;117.88;58.92;;;;;;;;;;5011981;28;20026;-48
2020/12/13 11:40:39;;;;;;;139.55;63.17;;;;;;;;;;5014062;28;20032;-48
2020/12/13 11:43:05;;;;;;;115.60;53.97;;;;;;;;;;5015426;28;20022;-48
2020/12/13 11:45:32;;;;;;;118.05;56.88;;;;;;;;;;5015475;28;20025;-48
2020/12/13 11:47:58;;;;;;;134.55;54.30;;;;;;;;;;5015277;28;20052;-48
2020/12/13 11:50:24;;;;;;;106.60;58.35;;;;;;;;;;5015424;28;20018;-48
2020/12/13 11:52:51;;;;;;;105.93;53.80;;;;;;;;;;5015263;28;20026;-48
2020/12/13 11:55:18;;;;;;;87.03;48.25;;;;;;;;;;5015253;28;20395;-48
2020/12/13 11:57:44;;;;;;;109.18;53.60;;;;;;;;;;5015259;28;20428;-48
2020/12/13 12:00:10;;;;;;;102.03;51.97;;;;;;;;;;5015374;28;20026;-48
2020/12/13 12:02:36;;;;;;;94.68;49.78;;;;;;;;;;5015072;28;20072;-48
2020/12/13 12:05:03;;;;;;;118.35;52.78;;;;;;;;;;5015187;28;20080;-48
2020/12/13 12:07:29;;;;;;;117.00;53.53;;;;;;;;;;5015174;28;20058;-48
2020/12/13 12:09:56;;;;;;;89.35;44.33;;;;;;;;;;5015153;28;20029;-47
2020/12/13 12:12:22;;;;;;;104.75;49.53;;;;;;;;;;5014987;28;20053;-48
2020/12/13 12:14:48;;;;;;;95.65;48.15;;;;;;;;;;5014808;28;20028;-48
2020/12/13 12:17:14;;;;;;;77.50;48.45;;;;;;;;;;5014751;28;20079;-48
2020/12/13 12:19:42;;;;;;;92.43;48.67;;;;;;;;;;5014921;28;20033;-48
2020/12/13 12:22:08;;;;;;;84.25;46.85;;;;;;;;;;5014744;28;20100;-48
2020/12/13 12:24:35;;;;;;;142.82;52.80;;;;;;;;;;5014815;28;20022;-48
2020/12/13 12:27:02;;;;;;;69.68;40.47;;;;;;;;;;5014645;28;20030;-48
2020/12/13 12:29:28;;;;;;;75.38;46.55;;;;;;;;;;5014569;28;20045;-48
2020/12/13 12:31:54;;;;;;;82.40;41.70;;;;;;;;;;5014668;28;20065;-48
2020/12/13 12:34:21;;;;;;;108.40;46.03;;;;;;;;;;5014581;28;20123;-48
2020/12/13 12:36:47;;;;;;;84.88;45.30;;;;;;;;;;5014520;28;20026;-48
2020/12/13 12:39:13;;;;;;;75.80;44.10;;;;;;;;;;5014490;28;20035;-48
2020/12/13 12:41:39;;;;;;;74.75;40.58;;;;;;;;;;5014593;28;20030;-48
2020/12/13 12:44:06;;;;;;;80.35;41.97;;;;;;;;;;5014737;28;20029;-48
2020/12/13 12:46:32;;;;;;;104.68;46.58;;;;;;;;;;5014583;28;20026;-48
2020/12/13 12:48:58;;;;;;;78.68;45.25;;;;;;;;;;5014413;28;20097;-48
2020/12/13 12:51:27;;;;;;;96.28;44.88;;;;;;;;;;5013699;28;20029;-48
2020/12/13 12:53:54;;;;;;;78.78;42.58;;;;;;;;;;5007736;28;20765;-47
2020/12/13 12:56:21;;;;;;;53.55;37.58;;;;;;;;;;5014050;28;20030;-52
2020/12/13 13:01:39;;;;;;;70.53;35.85;;;;;;;;;;5014070;28;20390;-47
2020/12/13 13:04:09;;;;;;;72.97;39.72;;;;;;;;;;5013444;28;20033;-54
2020/12/13 13:09:23;;;;;;;81.95;42.10;;;;;;;;;;5013746;28;20367;-50
2020/12/13 13:11:49;;;;;;;75.68;43.33;;;;;;;;;;5013647;28;20053;-52
2020/12/13 13:14:15;;;;;;;78.32;42.25;;;;;;;;;;5013807;28;20083;-45
2020/12/13 13:16:45;;;;;;;81.70;42.33;;;;;;;;;;5013601;28;20369;-50
2020/12/13 13:19:17;;;;;;;74.00;38.72;;;;;;;;;;5013555;28;20109;-44
2020/12/13 13:21:45;;;;;;;79.40;45.40;;;;;;;;;;5013521;28;20395;-45
2020/12/13 13:24:12;;;;;;;87.57;40.70;;;;;;;;;;5013282;28;20034;-45
2020/12/13 13:26:38;;;;;;;99.13;43.38;;;;;;;;;;5013258;28;20381;-44
2020/12/13 13:29:04;;;;;;;85.65;41.55;;;;;;;;;;5013609;28;20499;-44
2020/12/13 13:31:31;;;;;;;64.45;41.85;;;;;;;;;;5013312;28;20546;-45
2020/12/13 13:34:00;;;;;;;77.25;41.15;;;;;;;;;;5013203;28;20145;-45
2020/12/13 13:36:27;;;;;;;71.47;41.45;;;;;;;;;;5013221;28;20080;-47
2020/12/13 13:38:53;;;;;;;94.38;46.70;;;;;;;;;;5013260;28;20018;-47
2020/12/13 13:41:28;;;;;;;87.88;47.85;;;;;;;;;;5013195;28;20036;-47
2020/12/13 13:43:58;;;;;;;85.38;43.47;;;;;;;;;;5013100;28;20109;-49
2020/12/13 13:51:37;;;;;;;66.22;42.67;;;;;;;;;;5012981;28;20415;-48
2020/12/13 13:54:08;;;;;;;79.55;44.63;;;;;;;;;;5005075;28;20022;-48
2020/12/13 13:56:45;;;;;;;85.60;44.50;;;;;;;;;;4993442;28;20037;-47
2020/12/13 13:59:13;;;;;;;81.05;46.28;;;;;;;;;;4993115;28;20105;-48
2020/12/13 14:01:39;;;;;;;70.82;42.10;;;;;;;;;;4992649;28;20373;-48
2020/12/13 14:04:06;;;;;;;56.28;39.00;;;;;;;;;;4993138;28;20412;-48
2020/12/13 14:06:55;;;;;;;91.03;43.40;;;;;;;;;;4993337;28;20031;-48
2020/12/13 14:09:21;;;;;;;72.90;44.47;;;;;;;;;;4993060;28;20069;-47
2020/12/13 14:11:51;;;;;;;71.47;46.47;;;;;;;;;;4993006;28;20050;-47
2020/12/13 14:14:18;;;;;;;66.32;43.08;;;;;;;;;;5011355;28;20083;-47
2020/12/13 14:16:45;;;;;;;67.85;44.70;;;;;;;;;;5016045;28;20353;-48
2020/12/13 14:19:15;;;;;;;63.00;39.15;;;;;;;;;;5015701;28;20032;-49
2020/12/13 14:21:42;;;;;;;73.80;43.10;;;;;;;;;;5031810;28;20029;-48
2020/12/13 14:24:08;;;;;;;77.25;40.92;;;;;;;;;;5032124;28;20104;-48
2020/12/13 14:26:36;;;;;;;95.78;44.22;;;;;;;;;;5032218;28;20099;-47
2020/12/13 14:29:03;;;;;;;60.67;41.10;;;;;;;;;;5032118;28;20029;-47
2020/12/13 14:31:29;;;;;;;94.25;46.22;;;;;;;;;;5032014;28;20108;-47